Imlay City, Michigan
Current Conditions -  °F | °C
As of 3:37 PM on Monday 24 Nov 2014 (Local Time) from KD95 Reporting Station
Overcast Overcast  
Wind Chill: 34°   Ceiling: 1700
Heat Index: 43°   Visibility: 10mi
Dew Point: 36°   Wind: 23mph
Humidity: 76%   Direction: 220°SW
Pressure: 29.26"   Gusts: 36mph
Location:  43.02°N, 83.08°W
Report Text: KD95 242037Z AUTO 22020G31KT 10SM OVC017 06/02 A2926 RMK AO2
Loading
Personal Weather Stations






























Interactive Weather Map New forecast layout! Learn more

10-Day Weather Forecast

Advertisements
Track Severe Weather on mobile